Time;durP1;ratioP1;P1;durP2;ratioP2;P2;SDS_P1;SDS_P2;PMS_P1;PMS_P2;Temp;Humidity;BMP_temperature;BMP_pressure;BME280_temperature;BME280_humidity;BME280_pressure;Samples;Min_cycle;Max_cycle;Signal;HPM_P1;HPM_P2
2023/05/18 00:03:06;;;;;;;6.07;2.50;;;;;;;11.38;56.64;99898.09;7381459;39;21659;31
2023/05/18 00:08:40;;;;;;;7.13;2.40;;;;;;;11.42;56.22;99886.81;7423634;39;21260;31
2023/05/18 00:13:57;;;;;;;5.37;2.20;;;;;;;11.47;56.25;99878.25;7356216;39;21191;31
2023/05/18 00:19:29;;;;;;;8.83;2.70;;;;;;;11.45;56.39;99875.69;7395610;39;20482;31
2023/05/18 00:25:02;;;;;;;6.67;2.23;;;;;;;11.34;56.33;99877.81;7420107;39;20414;31
2023/05/18 00:30:34;;;;;;;4.57;2.13;;;;;;;11.38;56.52;99876.50;7381334;39;20252;31
2023/05/18 00:35:51;;;;;;;5.93;2.50;;;;;;;11.35;56.21;99877.66;7399546;39;21740;31
2023/05/18 00:41:23;;;;;;;8.03;2.10;;;;;;;11.23;56.63;99877.03;7399753;39;21704;31
2023/05/18 00:51:59;;;;;;;9.23;2.23;;;;;;;11.03;55.64;99871.94;7415791;39;20265;31
2023/05/18 00:57:32;;;;;;;8.25;2.25;;;;;;;10.99;56.55;99870.56;7199170;39;20228;31
2023/05/18 01:03:04;;;;;;;8.53;2.10;;;;;;;11.02;56.21;99864.84;7437003;39;20250;31
2023/05/18 01:08:36;;;;;;;6.10;2.40;;;;;;;10.99;56.44;99862.44;7398805;39;20247;31
2023/05/18 01:14:10;;;;;;;6.13;2.07;;;;;;;11.00;55.88;99850.69;7358489;39;20468;31
2023/05/18 01:19:50;;;;;;;6.65;2.00;;;;;;;10.95;56.23;99858.38;7369823;39;20259;31
2023/05/18 01:25:24;;;;;;;6.27;2.37;;;;;;;10.91;56.64;99855.13;7367254;39;21460;31
2023/05/18 01:30:57;;;;;;;8.45;2.20;;;;;;;10.91;56.37;99852.44;7403595;39;20278;31
2023/05/18 01:36:30;;;;;;;6.87;2.40;;;;;;;10.93;56.22;99854.97;7394371;39;21256;31
2023/05/18 01:42:02;;;;;;;6.10;2.17;;;;;;;10.83;56.42;99860.44;7423611;39;20250;31
2023/05/18 01:47:34;;;;;;;6.17;1.90;;;;;;;10.90;56.52;99860.66;7411666;39;21601;31
2023/05/18 01:53:06;;;;;;;8.17;2.70;;;;;;;10.84;56.53;99856.72;7395805;39;21716;31
2023/05/18 01:58:43;;;;;;;6.20;2.50;;;;;;;10.66;56.44;99848.59;7462407;38;20285;31
2023/05/18 02:09:17;;;;;;;8.80;2.50;;;;;;;10.47;56.90;99842.50;7441448;39;20828;31
2023/05/18 02:19:38;;;;;;;6.80;2.30;;;;;;;10.67;56.76;99846.75;7379223;39;21368;31
2023/05/18 02:30:16;;;;;;;7.23;2.20;;;;;;;10.51;57.08;99844.75;7398297;39;20365;31
2023/05/18 02:40:37;;;;;;;5.70;2.30;;;;;;;10.48;57.37;99839.66;7425462;39;20281;31
2023/05/18 02:51:15;;;;;;;6.27;2.40;;;;;;;10.35;57.59;99831.09;7443055;39;20242;31
2023/05/18 02:56:32;;;;;;;6.30;2.10;;;;;;;10.35;57.16;99831.09;7400741;39;20266;31
2023/05/18 03:02:08;;;;;;;8.80;2.60;;;;;;;10.25;57.69;99843.75;7422996;39;20227;31
2023/05/18 03:07:44;;;;;;;8.03;2.47;;;;;;;10.17;58.16;99840.94;7423895;39;21169;31
2023/05/18 03:13:13;;;;;;;5.87;2.40;;;;;;;10.13;58.48;99823.34;7396556;39;20250;31
2023/05/18 03:18:33;;;;;;;8.80;2.50;;;;;;;10.08;58.67;99841.78;7465772;39;20436;31
2023/05/18 03:24:13;;;;;;;8.90;2.53;;;;;;;10.07;58.76;99832.87;7422787;39;20251;31
2023/05/18 03:29:26;;;;;;;6.87;2.13;;;;;;;10.03;58.83;99841.37;7346360;39;21200;31
2023/05/18 03:34:47;;;;;;;7.00;2.50;;;;;;;10.06;58.59;99838.38;7423455;39;20344;31
2023/05/18 03:40:28;;;;;;;6.87;2.87;;;;;;;9.99;58.96;99845.38;7376316;39;21286;31
2023/05/18 03:45:45;;;;;;;7.00;2.30;;;;;;;10.06;58.90;99849.16;7375073;39;21292;31
2023/05/18 03:51:17;;;;;;;6.35;2.30;;;;;;;10.07;58.98;99849.03;7356819;39;20240;31
2023/05/18 03:56:50;;;;;;;7.05;2.15;;;;;;;10.04;59.04;99853.88;7339197;39;20229;31
2023/05/18 04:02:23;;;;;;;5.70;2.30;;;;;;;9.98;59.48;99854.44;7374213;39;21703;31
2023/05/18 04:07:56;;;;;;;7.40;2.60;;;;;;;10.04;58.68;99861.94;7366527;39;20332;31
2023/05/18 04:13:28;;;;;;;6.47;2.83;;;;;;;10.01;59.31;99868.44;7428269;39;21325;31
2023/05/18 04:18:45;;;;;;;7.57;2.87;;;;;;;9.99;59.35;99867.78;7379007;39;21806;31
2023/05/18 04:29:23;;;;;;;9.03;2.60;;;;;;;9.96;60.01;99876.12;7383949;39;20318;31
2023/05/18 04:39:44;;;;;;;8.30;2.83;;;;;;;10.19;59.66;99890.97;7418359;39;20488;31
2023/05/18 04:45:24;;;;;;;7.55;2.50;;;;;;;10.20;59.70;99878.34;7442735;39;20234;31
2023/05/18 04:50:54;;;;;;;6.55;2.70;;;;;;;10.18;59.35;99883.88;7379347;39;20243;31
2023/05/18 04:56:25;;;;;;;7.30;3.00;;;;;;;10.19;59.30;99892.81;7399581;39;20379;31
2023/05/18 05:01:58;;;;;;;8.07;2.40;;;;;;;10.19;59.56;99887.41;7316289;39;21852;31
2023/05/18 05:07:17;;;;;;;8.27;2.55;;;;;;;10.21;59.58;99893.53;7355795;39;21248;31
2023/05/18 05:12:49;;;;;;;7.43;2.43;;;;;;;10.13;60.50;99880.78;7421535;39;20276;31
2023/05/18 05:18:22;;;;;;;6.50;2.30;;;;;;;10.33;60.18;99889.66;7342595;39;20251;31
2023/05/18 05:23:44;;;;;;;6.10;2.20;;;;;;;10.35;59.64;99896.59;7422431;39;20451;31
2023/05/18 05:29:04;;;;;;;6.73;2.67;;;;;;;10.49;59.48;99892.53;7443494;39;20375;31
2023/05/18 05:34:39;;;;;;;8.30;2.70;;;;;;;10.61;59.00;99887.81;7405709;39;20376;31
2023/05/18 05:40:14;;;;;;;5.70;2.40;;;;;;;10.67;58.52;99890.75;7454340;39;20252;31
2023/05/18 05:45:49;;;;;;;6.63;2.73;;;;;;;10.75;58.71;99898.94;7487690;39;20284;31
2023/05/18 05:51:23;;;;;;;6.63;2.70;;;;;;;10.88;58.18;99895.91;7483978;39;21204;31
2023/05/18 05:56:59;;;;;;;6.90;2.50;;;;;;;11.04;57.83;99895.22;7489864;39;20242;31
2023/05/18 06:02:34;;;;;;;6.60;2.40;;;;;;;11.21;58.39;99897.94;7484353;39;20385;31
2023/05/18 06:08:08;;;;;;;9.93;2.87;;;;;;;11.42;57.12;99902.16;7460247;39;21191;31
2023/05/18 06:13:27;;;;;;;8.73;2.60;;;;;;;11.56;56.60;99907.88;7452039;39;21571;31
2023/05/18 06:18:44;;;;;;;4.33;2.20;;;;;;;11.72;56.94;99926.94;7421917;39;20243;31
2023/05/18 06:24:18;;;;;;;6.00;2.50;;;;;;;11.72;56.83;99916.13;7405360;39;21565;31
2023/05/18 06:29:51;;;;;;;6.40;2.30;;;;;;;11.86;56.33;99925.53;7381821;39;20491;31
2023/05/18 06:35:11;;;;;;;8.50;2.74;;;;;;;12.10;55.84;99927.59;7399225;39;21396;31
2023/05/18 06:40:46;;;;;;;8.50;2.70;;;;;;;12.10;55.74;99928.44;7399884;39;20503;31
2023/05/18 06:46:19;;;;;;;7.53;2.60;;;;;;;12.27;55.03;99928.53;7336868;39;21601;31
2023/05/18 06:51:52;;;;;;;8.10;2.43;;;;;;;12.50;55.21;99911.63;7378811;39;21235;31
2023/05/18 06:57:25;;;;;;;7.97;2.30;;;;;;;12.70;54.66;99916.75;7379029;39;20239;31
2023/05/18 07:02:44;;;;;;;6.73;2.47;;;;;;;12.81;54.60;99921.88;7440564;39;21180;31
2023/05/18 07:08:15;;;;;;;5.90;2.20;;;;;;;12.97;54.67;99916.53;7441722;39;20328;31
2023/05/18 07:13:49;;;;;;;6.65;2.60;;;;;;;13.12;54.02;99924.91;7453549;39;21665;31
2023/05/18 07:19:21;;;;;;;6.40;2.70;;;;;;;13.15;53.38;99924.56;7463722;39;21698;31
2023/05/18 07:29:59;;;;;;;5.40;2.40;;;;;;;13.47;53.76;99913.81;7405905;39;20410;31
2023/05/18 07:40:35;;;;;;;6.75;2.60;;;;;;;13.42;53.54;99917.00;7430224;39;20261;31
2023/05/18 07:51:13;;;;;;;8.80;2.63;;;;;;;13.99;53.37;99904.31;7214290;39;20279;31
2023/05/18 08:01:50;;;;;;;9.13;2.60;;;;;;;14.28;52.21;99906.47;7515058;38;22018;31
2023/05/18 08:12:31;;;;;;;7.90;2.30;;;;;;;14.66;50.90;99906.72;7516629;38;20269;31
2023/05/18 08:18:07;;;;;;;7.20;3.27;;;;;;;14.82;51.01;99903.94;7486833;38;20233;31
2023/05/18 08:23:28;;;;;;;8.47;2.97;;;;;;;15.00;51.81;99901.81;7488404;38;20386;31
2023/05/18 08:29:02;;;;;;;7.20;2.80;;;;;;;15.07;50.01;99889.22;7442093;39;20242;31
2023/05/18 08:34:33;;;;;;;8.30;2.75;;;;;;;15.19;50.36;99893.22;7421466;39;20426;31
2023/05/18 08:40:06;;;;;;;8.30;3.10;;;;;;;15.36;50.82;99893.13;7399764;39;21240;31
2023/05/18 08:45:40;;;;;;;7.50;2.60;;;;;;;15.55;49.14;99884.50;7426632;39;20399;31
2023/05/18 08:51:18;;;;;;;8.27;2.90;;;;;;;15.58;49.81;99887.69;7377265;39;20247;31
2023/05/18 08:56:34;;;;;;;6.05;2.90;;;;;;;15.79;49.82;99900.63;7376031;39;20240;31
2023/05/18 09:02:10;;;;;;;6.50;2.60;;;;;;;15.95;49.99;99880.59;7338352;39;20720;31
2023/05/18 09:12:47;;;;;;;8.57;2.90;;;;;;;16.22;48.15;99880.84;7383027;39;20378;31
2023/05/18 09:18:21;;;;;;;8.07;2.70;;;;;;;16.13;48.06;99875.66;7427220;38;21261;31
2023/05/18 09:23:57;;;;;;;5.40;2.65;;;;;;;16.19;48.07;99867.59;7448970;39;20250;31
2023/05/18 09:29:32;;;;;;;6.30;2.40;;;;;;;16.49;47.94;99859.47;7452503;39;20415;31
2023/05/18 09:35:07;;;;;;;9.90;3.30;;;;;;;16.77;47.63;99855.03;7442104;39;21633;31
2023/05/18 09:40:29;;;;;;;7.65;3.05;;;;;;;17.12;47.17;99853.34;7444299;39;20271;31
2023/05/18 09:46:04;;;;;;;5.47;2.90;;;;;;;17.29;45.62;99859.44;7441271;39;20242;31
2023/05/18 09:51:37;;;;;;;9.95;2.90;;;;;;;17.52;45.40;99860.91;7377072;39;20274;31
2023/05/18 09:57:10;;;;;;;7.13;3.33;;;;;;;17.62;45.52;99857.06;7357980;39;21246;31
2023/05/18 10:02:47;;;;;;;9.20;4.00;;;;;;;17.77;44.73;99838.75;7396921;39;21849;31
2023/05/18 10:08:21;;;;;;;8.90;3.40;;;;;;;17.82;43.60;99848.00;7433341;39;20254;31
2023/05/18 10:13:53;;;;;;;7.60;3.50;;;;;;;17.66;43.64;99845.56;7419044;39;21199;31
2023/05/18 10:19:26;;;;;;;8.87;3.70;;;;;;;17.87;44.41;99845.53;7443107;39;21223;31
2023/05/18 10:25:00;;;;;;;7.80;2.90;;;;;;;17.96;44.13;99838.03;7420752;39;20283;31
2023/05/18 10:30:31;;;;;;;7.65;3.25;;;;;;;18.25;42.90;99837.84;7419965;39;20374;31
2023/05/18 10:36:03;;;;;;;7.95;3.10;;;;;;;18.16;42.20;99844.50;7398719;39;20422;31
2023/05/18 10:41:35;;;;;;;6.20;2.90;;;;;;;18.19;41.43;99837.78;7337195;39;20580;31
2023/05/18 10:47:10;;;;;;;6.90;3.10;;;;;;;18.11;41.95;99813.38;7351238;39;21644;31
2023/05/18 10:52:41;;;;;;;6.10;3.00;;;;;;;18.33;41.23;99829.50;7398871;39;21731;31
2023/05/18 10:58:18;;;;;;;5.63;2.90;;;;;;;18.55;40.50;99813.88;7457439;39;20221;31
2023/05/18 11:03:50;;;;;;;8.07;3.27;;;;;;;18.17;40.53;99837.12;7483607;39;21210;31
2023/05/18 11:09:22;;;;;;;7.80;2.95;;;;;;;18.50;41.41;99826.41;7462304;39;20252;31
2023/05/18 11:15:00;;;;;;;6.50;2.90;;;;;;;18.89;40.36;99815.69;7484304;38;20394;31
2023/05/18 11:20:33;;;;;;;7.60;2.70;;;;;;;19.01;38.28;99827.72;7464253;39;20243;31
2023/05/18 11:26:09;;;;;;;7.33;2.73;;;;;;;18.97;38.62;99807.31;7461067;39;21640;31
2023/05/18 11:32:00;;;;;;;8.63;2.77;;;;;;;19.16;37.87;99805.69;7399236;39;20255;31
2023/05/18 11:37:49;;;;;;;7.95;2.95;;;;;;;19.33;38.67;99796.03;7400269;39;21256;31
2023/05/18 11:43:06;;;;;;;7.40;2.65;;;;;;;19.55;39.25;99799.44;7379802;39;20414;31
2023/05/18 11:48:38;;;;;;;11.35;2.65;;;;;;;19.64;37.24;99798.19;7433047;39;20399;31
2023/05/18 11:54:10;;;;;;;5.90;2.20;;;;;;;19.80;37.77;99793.13;7443079;39;20457;31
2023/05/18 11:59:46;;;;;;;6.40;2.33;;;;;;;19.90;36.72;99789.97;7442711;39;20352;31
2023/05/18 12:05:22;;;;;;;6.65;2.60;;;;;;;19.63;36.75;99800.09;7398902;39;21189;31
2023/05/18 12:10:56;;;;;;;8.20;2.60;;;;;;;19.53;38.15;99802.37;7406865;39;21684;31
2023/05/18 12:16:27;;;;;;;6.53;2.60;;;;;;;19.72;37.35;99779.69;7380312;39;20271;31
2023/05/18 12:22:03;;;;;;;7.13;2.77;;;;;;;19.89;36.36;99784.72;7335853;39;21254;31
2023/05/18 12:27:33;;;;;;;6.45;2.65;;;;;;;19.90;36.89;99783.66;7377879;39;20320;31
2023/05/18 12:33:06;;;;;;;7.97;2.70;;;;;;;19.80;36.24;99779.47;7403070;39;20417;31
2023/05/18 12:38:40;;;;;;;5.20;2.25;;;;;;;20.05;36.30;99765.94;7380333;39;20231;31
2023/05/18 12:43:58;;;;;;;5.07;2.35;;;;;;;20.16;35.58;99756.25;7391252;39;21434;31
2023/05/18 12:49:30;;;;;;;4.87;2.43;;;;;;;20.41;36.60;99765.44;7391246;39;20239;31
2023/05/18 12:55:09;;;;;;;8.10;2.55;;;;;;;20.25;35.67;99749.47;7431855;39;21589;31
2023/05/18 13:00:25;;;;;;;7.30;2.60;;;;;;;20.44;35.59;99753.25;7438636;39;21284;31
2023/05/18 13:06:00;;;;;;;6.00;2.43;;;;;;;20.25;36.60;99750.31;7444652;38;20235;31
2023/05/18 13:11:40;;;;;;;6.95;2.90;;;;;;;20.41;34.99;99739.97;7442251;39;21174;31
2023/05/18 13:17:12;;;;;;;3.70;2.30;;;;;;;20.51;35.48;99737.59;7441895;39;20375;31
2023/05/18 13:22:44;;;;;;;6.50;2.63;;;;;;;20.83;36.41;99735.75;7441710;39;20277;31
2023/05/18 13:28:20;;;;;;;6.50;2.40;;;;;;;21.01;36.25;99742.19;7454688;39;21406;31
2023/05/18 13:33:38;;;;;;;5.80;2.30;;;;;;;20.91;36.14;99732.75;7419056;39;21398;31
2023/05/18 13:39:10;;;;;;;5.20;2.60;;;;;;;20.92;35.38;99727.06;7446324;39;20239;31
2023/05/18 13:44:44;;;;;;;6.27;2.57;;;;;;;20.98;36.35;99726.16;7435932;39;21174;31
2023/05/18 13:50:02;;;;;;;6.70;2.80;;;;;;;20.93;36.18;99733.41;7427988;39;21284;31
2023/05/18 13:55:37;;;;;;;5.23;2.43;;;;;;;20.56;36.50;99721.38;7442011;39;20374;31
2023/05/18 14:01:11;;;;;;;5.83;2.50;;;;;;;20.55;36.35;99700.50;7440374;39;20242;31
2023/05/18 14:06:27;;;;;;;5.83;2.40;;;;;;;20.55;36.16;99712.31;7193705;39;20338;31
2023/05/18 14:11:59;;;;;;;8.10;2.40;;;;;;;19.98;36.07;99709.53;7485599;38;20241;31
2023/05/18 14:17:32;;;;;;;5.80;2.55;;;;;;;20.31;37.26;99698.53;7483072;38;20435;31
2023/05/18 14:28:12;;;;;;;8.93;2.60;;;;;;;20.16;35.51;99702.34;7486540;38;20253;31
2023/05/18 14:38:50;;;;;;;7.85;2.35;;;;;;;20.40;36.24;99689.00;7460226;39;20349;31
2023/05/18 14:44:22;;;;;;;4.37;2.30;;;;;;;20.61;35.87;99688.69;7420940;39;21930;31
2023/05/18 14:49:54;;;;;;;7.40;2.65;;;;;;;20.56;36.31;99686.59;7443407;39;20242;31
2023/05/18 14:55:30;;;;;;;6.17;2.23;;;;;;;20.02;37.17;99681.53;7383429;39;20242;31
2023/05/18 15:01:02;;;;;;;5.17;2.23;;;;;;;20.05;36.93;99672.06;7467770;39;20318;31
2023/05/18 15:06:37;;;;;;;5.10;2.20;;;;;;;20.23;35.96;99669.44;7435775;39;20238;31
2023/05/18 15:12:10;;;;;;;4.60;2.35;;;;;;;20.50;35.65;99671.03;7402390;39;20243;31
2023/05/18 15:17:27;;;;;;;8.90;2.40;;;;;;;20.34;37.54;99674.28;7404596;39;20398;31
2023/05/18 15:22:59;;;;;;;6.20;2.15;;;;;;;20.23;36.37;99667.53;7400089;39;20359;31
2023/05/18 15:28:30;;;;;;;6.50;2.30;;;;;;;20.31;37.32;99662.94;7420374;39;20290;31
2023/05/18 15:33:48;;;;;;;5.80;2.20;;;;;;;20.60;36.32;99657.72;7429337;39;21395;31
2023/05/18 15:39:05;;;;;;;4.43;2.27;;;;;;;20.71;36.94;99650.69;7461521;39;20306;31
2023/05/18 15:44:41;;;;;;;4.10;2.00;;;;;;;20.56;34.14;99656.47;7421399;39;20390;31
2023/05/18 15:50:16;;;;;;;8.53;2.23;;;;;;;20.50;36.64;99659.22;7397784;39;20383;31
2023/05/18 15:55:33;;;;;;;5.35;2.45;;;;;;;20.24;36.42;99663.75;7415145;39;20288;31
2023/05/18 16:01:07;;;;;;;7.13;2.40;;;;;;;20.11;35.43;99662.97;7423077;39;20270;31
2023/05/18 16:06:39;;;;;;;6.20;2.37;;;;;;;20.40;36.48;99657.00;7380230;39;21726;31
2023/05/18 16:11:57;;;;;;;5.83;2.20;;;;;;;20.45;35.42;99643.44;7398534;39;20239;31
2023/05/18 16:17:33;;;;;;;7.47;2.50;;;;;;;20.62;35.63;99649.28;7445224;39;20234;31
2023/05/18 16:22:54;;;;;;;5.10;2.30;;;;;;;20.31;35.21;99651.97;7447170;39;20238;31
2023/05/18 16:28:15;;;;;;;7.60;3.03;;;;;;;20.00;35.16;99655.44;7512005;38;20342;31
2023/05/18 16:33:48;;;;;;;7.45;2.40;;;;;;;20.02;36.73;99653.31;7462841;39;20356;31
2023/05/18 16:39:06;;;;;;;5.40;2.33;;;;;;;20.03;37.88;99652.28;7441362;39;20321;31
2023/05/18 16:44:23;;;;;;;6.30;2.30;;;;;;;20.20;37.17;99659.78;7442231;39;20257;31
2023/05/18 16:49:58;;;;;;;5.37;2.13;;;;;;;20.04;36.36;99663.00;7467073;39;20322;31
2023/05/18 16:55:33;;;;;;;7.30;2.50;;;;;;;19.74;36.52;99665.44;7429885;39;20336;31
2023/05/18 17:01:06;;;;;;;5.80;2.50;;;;;;;19.60;36.63;99665.66;7461916;39;20257;31
2023/05/18 17:06:37;;;;;;;8.00;2.40;;;;;;;19.49;37.77;99660.81;7442336;39;21411;31
2023/05/18 17:12:10;;;;;;;5.30;2.47;;;;;;;19.44;37.01;99664.19;7463552;39;21561;31
2023/05/18 17:17:42;;;;;;;5.70;2.20;;;;;;;19.23;37.15;99669.84;7439463;39;20689;31
2023/05/18 17:23:17;;;;;;;7.77;2.63;;;;;;;19.18;37.80;99667.75;7423487;39;21747;31
2023/05/18 17:28:51;;;;;;;5.20;2.47;;;;;;;19.05;37.92;99664.19;7456857;39;20250;31
2023/05/18 17:34:13;;;;;;;6.97;3.00;;;;;;;18.99;38.99;99665.03;7486563;38;20677;31
2023/05/18 17:39:45;;;;;;;9.55;2.70;;;;;;;18.90;39.05;99657.06;7439818;39;20394;31
2023/05/18 17:45:17;;;;;;;6.93;2.50;;;;;;;18.85;38.44;99656.81;7415078;39;20378;31
2023/05/18 17:50:50;;;;;;;6.15;2.60;;;;;;;18.81;39.82;99669.22;7378788;39;20256;31
2023/05/18 17:56:23;;;;;;;5.07;2.35;;;;;;;18.81;39.37;99669.22;7316798;39;21479;31
2023/05/18 18:01:55;;;;;;;5.10;2.30;;;;;;;18.79;40.02;99665.84;7367258;39;21424;31
2023/05/18 18:07:13;;;;;;;6.60;2.43;;;;;;;18.72;39.50;99664.16;7402711;39;21314;31
2023/05/18 18:17:48;;;;;;;5.90;2.35;;;;;;;18.47;40.19;99663.88;7410017;39;20350;31
2023/05/18 18:23:35;;;;;;;7.20;2.10;;;;;;;18.41;39.38;99667.41;7461169;39;21707;31
2023/05/18 18:29:10;;;;;;;6.20;2.30;;;;;;;18.32;40.59;99669.50;7428862;39;21308;31
2023/05/18 18:34:47;;;;;;;5.13;2.53;;;;;;;18.14;39.64;99682.00;7442520;39;20242;31
2023/05/18 18:40:21;;;;;;;7.30;2.67;;;;;;;18.03;40.46;99676.06;7442631;39;21262;31
2023/05/18 18:45:54;;;;;;;5.75;2.20;;;;;;;17.96;41.30;99683.41;7378730;39;20240;31
2023/05/18 18:51:26;;;;;;;6.37;2.83;;;;;;;17.90;40.65;99689.66;7374885;39;21745;31
2023/05/18 18:57:00;;;;;;;5.20;2.50;;;;;;;17.77;40.85;99700.47;7399189;39;20275;31
2023/05/18 19:02:17;;;;;;;5.80;2.30;;;;;;;17.54;43.61;99697.16;7407422;39;21370;31
2023/05/18 19:12:53;;;;;;;6.70;2.45;;;;;;;17.01;45.79;99710.38;7398170;39;20294;31
2023/05/18 19:18:11;;;;;;;7.20;2.70;;;;;;;16.82;46.68;99711.00;7391636;39;20337;31
2023/05/18 19:23:42;;;;;;;7.65;2.55;;;;;;;16.64;47.05;99729.66;7412198;39;20554;31
2023/05/18 19:29:17;;;;;;;6.15;2.60;;;;;;;16.47;47.97;99720.00;7422274;39;20379;31
2023/05/18 19:34:34;;;;;;;7.17;2.40;;;;;;;16.33;48.17;99729.03;7356078;39;21554;31
2023/05/18 19:39:54;;;;;;;7.15;2.75;;;;;;;16.20;48.13;99733.28;7361941;39;20578;31
2023/05/18 19:45:27;;;;;;;7.10;2.70;;;;;;;15.99;48.32;99738.66;7390197;39;20476;31
2023/05/18 19:56:04;;;;;;;5.67;2.60;;;;;;;15.72;49.94;99750.16;7441620;39;20401;31
2023/05/18 20:06:41;;;;;;;4.80;2.50;;;;;;;15.50;49.76;99751.91;7462201;39;20262;31
2023/05/18 20:17:21;;;;;;;5.93;2.50;;;;;;;15.33;50.39;99742.19;7497562;38;21469;31
2023/05/18 20:22:52;;;;;;;6.17;2.90;;;;;;;15.22;50.92;99750.81;7421369;39;20757;31
2023/05/18 20:28:12;;;;;;;6.73;2.60;;;;;;;15.12;50.65;99763.78;7423682;39;20337;31
2023/05/18 20:33:32;;;;;;;5.10;2.80;;;;;;;15.00;50.93;99757.94;7402008;39;20285;31
2023/05/18 20:39:06;;;;;;;7.53;2.60;;;;;;;14.83;51.78;99757.19;7420808;39;20350;31
2023/05/18 20:44:26;;;;;;;6.50;2.80;;;;;;;14.74;52.01;99757.44;7189127;39;20230;31
2023/05/18 20:49:41;;;;;;;8.90;3.50;;;;;;;14.69;51.65;99754.41;7442869;39;20682;31
2023/05/18 20:55:15;;;;;;;6.93;3.00;;;;;;;14.57;52.45;99755.84;7438388;39;21348;31
2023/05/18 21:00:32;;;;;;;4.75;2.40;;;;;;;14.52;52.36;99752.84;7402191;39;20298;31
2023/05/18 21:06:07;;;;;;;3.80;2.10;;;;;;;14.37;52.95;99750.03;7418485;39;20390;31
2023/05/18 21:11:40;;;;;;;6.10;2.60;;;;;;;14.35;53.02;99760.16;7403190;39;20267;31
2023/05/18 21:22:05;;;;;;;5.00;2.50;;;;;;;14.56;51.60;99765.00;7369001;39;21183;31
2023/05/18 21:32:43;;;;;;;7.77;2.47;;;;;;;14.58;50.96;99761.09;7443086;39;20271;31
2023/05/18 21:43:18;;;;;;;6.97;2.90;;;;;;;14.66;51.27;99768.31;7483838;39;20397;31
2023/05/18 21:53:55;;;;;;;7.90;2.90;;;;;;;14.68;51.66;99769.00;7470125;39;21273;31
2023/05/18 22:04:20;;;;;;;6.50;2.10;;;;;;;14.61;52.24;99768.84;7493064;39;20267;31
2023/05/18 22:15:01;;;;;;;5.80;2.30;;;;;;;14.57;51.85;99772.13;7512459;38;20261;31
2023/05/18 22:25:41;;;;;;;5.43;2.20;;;;;;;14.35;51.71;99760.16;7515494;38;20262;31
2023/05/18 22:31:14;;;;;;;5.23;2.37;;;;;;;14.38;51.45;99765.28;7462307;39;21136;31
2023/05/18 22:36:46;;;;;;;7.80;2.20;;;;;;;14.46;51.65;99765.22;7463230;39;20246;31
2023/05/18 22:42:20;;;;;;;5.67;2.20;;;;;;;14.58;51.28;99773.81;7418807;39;20790;31
2023/05/18 22:47:52;;;;;;;9.90;2.27;;;;;;;14.37;51.35;99766.28;7410627;39;20326;31
2023/05/18 22:53:26;;;;;;;4.25;2.05;;;;;;;14.21;51.92;99766.34;7402179;39;21683;31
2023/05/18 22:58:58;;;;;;;8.45;2.45;;;;;;;14.26;51.78;99769.38;7404329;39;21414;31
2023/05/18 23:04:31;;;;;;;4.13;2.03;;;;;;;14.15;51.66;99757.03;7396598;39;20250;31
2023/05/18 23:10:08;;;;;;;4.23;2.37;;;;;;;14.21;51.94;99761.75;7393573;39;21293;31
2023/05/18 23:20:50;;;;;;;6.00;2.35;;;;;;;14.03;51.73;99750.31;7368601;39;21399;31
2023/05/18 23:31:10;;;;;;;5.47;2.30;;;;;;;14.07;51.95;99758.94;7491191;38;22635;31
2023/05/18 23:36:43;;;;;;;8.37;2.23;;;;;;;14.06;51.94;99754.53;7439156;39;21362;31
2023/05/18 23:47:06;;;;;;;6.63;2.37;;;;;;;14.00;52.13;99759.63;7467129;39;20396;31
2023/05/18 23:57:44;;;;;;;6.47;2.10;;;;;;;13.86;52.02;99744.13;7428018;39;20262;31
